Time;durP1;ratioP1;P1;durP2;ratioP2;P2;SDS_P1;SDS_P2;PMS_P1;PMS_P2;Temp;Humidity;BMP_temperature;BMP_pressure;BME280_temperature;BME280_humidity;BME280_pressure;Samples;Min_cycle;Max_cycle;Signal;HPM_P1;HPM_P2
2023/05/07 00:00:15;;;;;;;10.98;4.75;;;4.90;99.90;;;;;;4915761;29;20171;-79
2023/05/07 00:02:44;;;;;;;7.90;3.97;;;4.90;99.90;;;;;;4914990;29;23259;-79
2023/05/07 00:05:11;;;;;;;6.82;3.80;;;4.90;99.90;;;;;;4930391;29;20050;-78
2023/05/07 00:07:39;;;;;;;6.70;3.95;;;4.90;99.90;;;;;;4933011;29;20059;-78
2023/05/07 00:10:07;;;;;;;6.40;3.60;;;4.90;99.90;;;;;;4912650;29;20071;-78
2023/05/07 00:12:35;;;;;;;7.30;3.78;;;4.80;99.90;;;;;;4914251;29;20146;-77
2023/05/07 00:15:04;;;;;;;4.32;3.53;;;4.80;99.90;;;;;;4915898;29;20052;-77
2023/05/07 00:17:35;;;;;;;5.43;3.90;;;4.80;99.90;;;;;;4914666;29;20063;-78
2023/05/07 00:20:05;;;;;;;7.60;3.50;;;4.80;99.90;;;;;;4932014;29;20052;-77
2023/05/07 00:22:34;;;;;;;4.28;3.38;;;4.80;99.90;;;;;;4929742;29;20159;-77
2023/05/07 00:25:01;;;;;;;5.13;3.60;;;4.70;99.90;;;;;;4929824;29;20056;-73
2023/05/07 00:27:34;;;;;;;5.70;2.97;;;4.70;99.90;;;;;;4932099;29;20059;-71
2023/05/07 00:30:01;;;;;;;5.85;4.45;;;4.70;99.90;;;;;;4915234;29;20047;-72
2023/05/07 00:32:36;;;;;;;6.85;3.83;;;4.60;99.90;;;;;;4936838;29;20066;-72
2023/05/07 00:35:06;;;;;;;5.28;3.70;;;4.60;99.90;;;;;;4920892;29;20142;-72
2023/05/07 00:37:33;;;;;;;5.88;3.78;;;4.60;99.90;;;;;;4916262;29;20517;-72
2023/05/07 00:40:03;;;;;;;9.35;4.38;;;4.60;99.90;;;;;;4931574;29;20509;-72
2023/05/07 00:42:32;;;;;;;11.65;4.30;;;4.60;99.90;;;;;;4902516;29;20047;-71
2023/05/07 00:44:59;;;;;;;6.65;3.63;;;4.60;99.90;;;;;;4915931;29;20513;-70
2023/05/07 00:47:26;;;;;;;5.88;4.05;;;4.60;99.90;;;;;;4917994;29;20055;-76
2023/05/07 00:49:54;;;;;;;4.93;4.05;;;4.50;99.90;;;;;;4916380;29;20147;-77
2023/05/07 00:52:26;;;;;;;4.63;4.10;;;4.50;99.90;;;;;;4917794;29;20059;-71
2023/05/07 00:54:54;;;;;;;7.60;4.73;;;4.50;99.90;;;;;;4934602;29;20555;-78
2023/05/07 00:57:23;;;;;;;6.88;4.60;;;4.60;99.90;;;;;;4935538;29;20788;-78
2023/05/07 00:59:52;;;;;;;7.80;4.07;;;4.60;99.90;;;;;;4933255;29;20052;-77
2023/05/07 01:02:20;;;;;;;6.60;4.05;;;4.60;99.90;;;;;;4902208;29;20048;-78
2023/05/07 01:04:47;;;;;;;8.77;5.30;;;4.70;99.90;;;;;;4920998;29;20055;-79
2023/05/07 01:07:16;;;;;;;6.25;4.53;;;4.70;99.90;;;;;;4935673;29;20056;-77
2023/05/07 01:09:44;;;;;;;5.95;4.10;;;4.80;99.90;;;;;;4915330;29;20083;-78
2023/05/07 01:12:12;;;;;;;5.32;4.25;;;4.80;99.90;;;;;;4903320;29;20095;-78
2023/05/07 01:14:39;;;;;;;6.45;4.40;;;4.90;99.90;;;;;;4935505;29;20051;-80
2023/05/07 01:17:08;;;;;;;6.53;4.30;;;4.90;99.90;;;;;;4901576;29;20504;-77
2023/05/07 01:19:36;;;;;;;4.22;3.80;;;4.90;99.90;;;;;;4918660;29;20493;-78
2023/05/07 01:22:08;;;;;;;6.53;4.22;;;5.00;99.90;;;;;;4899671;29;20056;-72
2023/05/07 01:24:45;;;;;;;6.82;4.32;;;5.00;99.90;;;;;;4898113;29;20051;-72
2023/05/07 01:27:14;;;;;;;8.45;4.82;;;5.10;99.90;;;;;;4905762;29;20520;-72
2023/05/07 01:29:42;;;;;;;7.00;4.35;;;5.20;99.90;;;;;;4899512;29;20052;-78
2023/05/07 01:32:11;;;;;;;6.38;4.05;;;5.20;99.90;;;;;;4904805;29;20143;-79
2023/05/07 01:34:38;;;;;;;4.95;3.92;;;5.20;99.90;;;;;;4897495;29;20059;-73
2023/05/07 01:37:06;;;;;;;5.18;3.60;;;5.20;99.90;;;;;;4921822;29;20059;-78
2023/05/07 01:39:34;;;;;;;8.80;4.07;;;5.20;99.90;;;;;;4918201;29;20047;-77
2023/05/07 01:42:03;;;;;;;8.18;4.25;;;5.20;99.90;;;;;;4913747;29;20052;-78
2023/05/07 01:44:31;;;;;;;4.45;3.17;;;5.20;99.90;;;;;;4914363;29;20138;-77
2023/05/07 01:46:59;;;;;;;4.13;3.03;;;5.20;99.90;;;;;;4933201;29;20535;-80
2023/05/07 01:49:26;;;;;;;3.53;3.00;;;5.30;99.90;;;;;;4915327;29;20402;-79
2023/05/07 01:51:55;;;;;;;5.25;3.22;;;5.30;99.90;;;;;;4921157;29;20048;-78
2023/05/07 01:54:27;;;;;;;4.93;3.28;;;5.40;99.90;;;;;;4933359;29;20071;-78
2023/05/07 01:56:56;;;;;;;5.00;3.45;;;5.40;99.90;;;;;;4915108;29;20059;-79
2023/05/07 01:59:25;;;;;;;5.47;3.25;;;5.40;99.90;;;;;;4907724;29;20044;-79
2023/05/07 02:01:53;;;;;;;4.75;3.28;;;5.40;99.90;;;;;;4917799;29;20080;-79
2023/05/07 02:04:20;;;;;;;4.82;3.25;;;5.40;99.90;;;;;;4917622;29;20516;-78
2023/05/07 02:06:48;;;;;;;7.32;3.08;;;5.40;99.90;;;;;;4932205;29;20569;-77
2023/05/07 02:09:16;;;;;;;6.70;3.20;;;5.40;99.90;;;;;;4930565;29;20075;-72
2023/05/07 02:11:46;;;;;;;5.53;2.92;;;5.40;99.90;;;;;;4912615;29;20429;-72
2023/05/07 02:14:14;;;;;;;6.35;2.78;;;5.50;99.90;;;;;;4915012;29;20052;-73
2023/05/07 02:16:43;;;;;;;3.35;2.70;;;5.50;99.90;;;;;;4933960;29;20505;-73
2023/05/07 02:19:12;;;;;;;3.33;2.50;;;5.50;99.90;;;;;;4934109;29;20055;-73
2023/05/07 02:21:40;;;;;;;4.95;2.85;;;5.50;99.90;;;;;;4925005;29;20505;-72
2023/05/07 02:24:07;;;;;;;3.78;2.50;;;5.60;99.90;;;;;;4933390;29;20532;-78
2023/05/07 02:26:35;;;;;;;2.83;2.35;;;5.60;99.90;;;;;;4916718;29;20560;-76
2023/05/07 02:29:02;;;;;;;6.38;2.90;;;5.60;99.90;;;;;;4897249;29;20526;-79
2023/05/07 02:31:29;;;;;;;4.15;2.78;;;5.60;99.90;;;;;;4925519;29;20087;-78
2023/05/07 02:33:58;;;;;;;3.67;2.08;;;5.70;99.90;;;;;;4915879;29;20054;-78
2023/05/07 02:36:26;;;;;;;4.28;2.30;;;5.70;99.90;;;;;;4898220;29;20098;-79
2023/05/07 02:39:15;;;;;;;2.78;2.47;;;5.80;99.90;;;;;;4914285;29;20108;-79
2023/05/07 02:41:42;;;;;;;4.18;2.20;;;5.80;99.90;;;;;;4916960;29;20517;-78
2023/05/07 02:44:10;;;;;;;6.45;2.42;;;5.80;99.90;;;;;;4915413;29;20055;-79
2023/05/07 02:46:38;;;;;;;4.38;2.63;;;5.80;99.90;;;;;;4898043;29;20510;-79
2023/05/07 02:49:10;;;;;;;3.38;2.35;;;5.90;99.90;;;;;;4923665;29;20063;-78
2023/05/07 02:51:38;;;;;;;4.20;2.20;;;5.90;99.90;;;;;;4900290;29;20051;-78
2023/05/07 02:54:11;;;;;;;;;;;5.90;99.90;;;;;;4915156;29;20048;-78
2023/05/07 02:56:38;;;;;;;3.90;2.08;;;5.90;99.90;;;;;;4912467;29;19989;-78
2023/05/07 02:59:05;;;;;;;3.65;1.77;;;5.90;99.90;;;;;;4909253;29;20193;-77
2023/05/07 03:01:37;;;;;;;3.05;2.05;;;6.00;99.90;;;;;;4916453;29;20063;-76
2023/05/07 03:04:07;;;;;;;7.20;2.33;;;6.00;99.90;;;;;;4917140;29;20075;-78
2023/05/07 03:06:36;;;;;;;7.30;2.70;;;6.10;99.90;;;;;;4931287;29;20048;-77
2023/05/07 03:09:03;;;;;;;5.00;2.28;;;6.10;99.90;;;;;;4931227;29;20047;-78
2023/05/07 03:11:31;;;;;;;6.47;2.30;;;6.10;99.90;;;;;;4930543;29;20189;-78
2023/05/07 03:13:58;;;;;;;3.63;2.17;;;6.10;99.90;;;;;;4914523;29;20088;-78
2023/05/07 03:16:26;;;;;;;3.65;2.35;;;6.10;99.90;;;;;;4900979;29;20044;-78
2023/05/07 03:18:53;;;;;;;3.42;2.28;;;6.10;99.90;;;;;;4913798;29;20114;-78
2023/05/07 03:21:21;;;;;;;7.85;2.67;;;6.10;99.90;;;;;;4932492;29;20039;-78
2023/05/07 03:23:49;;;;;;;4.47;2.35;;;6.20;99.90;;;;;;4933126;29;20066;-79
2023/05/07 03:26:17;;;;;;;3.80;2.10;;;6.20;99.90;;;;;;4932848;29;20688;-78
2023/05/07 03:28:45;;;;;;;3.30;2.17;;;6.30;99.90;;;;;;4899827;29;20063;-78
2023/05/07 03:31:15;;;;;;;3.97;2.50;;;6.30;99.90;;;;;;4915395;29;20051;-79
2023/05/07 03:33:52;;;;;;;4.80;2.30;;;6.40;99.90;;;;;;4916196;29;20457;-79
2023/05/07 03:36:19;;;;;;;4.68;2.33;;;6.40;99.90;;;;;;4899693;29;20059;-79
2023/05/07 03:38:47;;;;;;;2.25;1.92;;;6.40;99.90;;;;;;4914557;29;20052;-79
2023/05/07 03:41:18;;;;;;;5.35;2.50;;;6.50;99.90;;;;;;4915778;29;20052;-78
2023/05/07 03:43:46;;;;;;;3.13;2.30;;;6.50;99.90;;;;;;4914595;29;20044;-78
2023/05/07 03:46:14;;;;;;;5.93;2.47;;;6.60;99.90;;;;;;4900382;29;20095;-78
2023/05/07 03:48:42;;;;;;;4.70;3.08;;;6.60;99.90;;;;;;4901391;29;20056;-78
2023/05/07 03:51:10;;;;;;;5.03;2.40;;;6.60;99.90;;;;;;4914345;29;20119;-78
2023/05/07 03:53:37;;;;;;;3.67;2.33;;;6.70;99.90;;;;;;4914631;29;20077;-77
2023/05/07 03:56:05;;;;;;;4.47;2.58;;;6.70;99.90;;;;;;4932974;29;20045;-77
2023/05/07 03:58:38;;;;;;;4.63;2.42;;;6.70;99.90;;;;;;4914857;29;20071;-77
2023/05/07 04:01:09;;;;;;;12.02;2.40;;;6.80;99.90;;;;;;4898945;29;20520;-77
2023/05/07 04:03:36;;;;;;;7.63;2.72;;;6.90;99.90;;;;;;4915294;29;20056;-78
2023/05/07 04:06:04;;;;;;;4.80;2.40;;;6.90;99.90;;;;;;4914953;29;20095;-78
2023/05/07 04:08:34;;;;;;;6.50;2.47;;;7.00;99.90;;;;;;4929893;29;20110;-77
2023/05/07 04:11:03;;;;;;;3.85;2.00;;;7.10;99.90;;;;;;4912205;29;20055;-77
2023/05/07 04:13:33;;;;;;;6.47;2.38;;;7.20;99.90;;;;;;4882563;29;20139;-78
2023/05/07 04:16:04;;;;;;;4.05;2.38;;;7.30;99.90;;;;;;4915710;29;20584;-80
2023/05/07 04:18:34;;;;;;;3.53;2.10;;;7.30;99.90;;;;;;4926895;29;20060;-78
2023/05/07 04:21:01;;;;;;;3.80;2.10;;;7.50;99.90;;;;;;4911376;29;20104;-78
2023/05/07 04:23:29;;;;;;;5.13;1.90;;;7.60;99.90;;;;;;4900886;29;20054;-80
2023/05/07 04:26:00;;;;;;;2.60;2.10;;;7.60;99.90;;;;;;4915613;29;20058;-77
2023/05/07 04:28:39;;;;;;;4.32;2.20;;;7.70;99.90;;;;;;4898377;29;20138;-77
2023/05/07 04:31:09;;;;;;;5.47;2.47;;;7.80;99.90;;;;;;4899153;29;20055;-78
2023/05/07 04:33:38;;;;;;;4.00;2.15;;;7.80;99.90;;;;;;4912081;29;20040;-78
2023/05/07 04:36:08;;;;;;;2.08;1.77;;;7.80;99.90;;;;;;4905050;29;20051;-79
2023/05/07 04:38:42;;;;;;;2.67;1.73;;;7.90;99.90;;;;;;4925979;29;20070;-78
2023/05/07 04:41:10;;;;;;;3.13;2.13;;;8.00;99.90;;;;;;4898331;29;20055;-78
2023/05/07 04:43:41;;;;;;;3.85;1.90;;;8.10;99.90;;;;;;4893542;29;20555;-77
2023/05/07 04:46:10;;;;;;;3.85;1.65;;;8.20;99.90;;;;;;4920495;29;20079;-78
2023/05/07 04:48:38;;;;;;;2.20;1.70;;;8.30;99.90;;;;;;4900081;29;20139;-79
2023/05/07 04:51:06;;;;;;;5.97;2.13;;;8.30;99.80;;;;;;4926548;29;20459;-78
2023/05/07 04:53:34;;;;;;;5.07;2.13;;;8.40;99.40;;;;;;4891071;29;20095;-78
2023/05/07 04:56:02;;;;;;;6.13;1.60;;;8.60;98.40;;;;;;4913233;29;20058;-77
2023/05/07 04:58:38;;;;;;;3.42;2.35;;;8.70;97.60;;;;;;4898017;29;20114;-79
2023/05/07 05:01:06;;;;;;;3.38;1.75;;;8.80;96.30;;;;;;4913661;29;20449;-79
2023/05/07 05:03:35;;;;;;;6.00;1.92;;;8.90;95.80;;;;;;4930492;29;20048;-78
2023/05/07 05:06:03;;;;;;;6.88;1.63;;;9.10;94.40;;;;;;4911831;29;20056;-78
2023/05/07 05:08:33;;;;;;;3.47;1.33;;;9.30;92.80;;;;;;4915698;29;20040;-78
2023/05/07 05:11:03;;;;;;;2.45;1.60;;;9.40;91.60;;;;;;4917840;29;20066;-77
2023/05/07 05:13:32;;;;;;;5.55;1.45;;;9.50;90.80;;;;;;4901655;29;20133;-78
2023/05/07 05:15:59;;;;;;;6.75;1.63;;;9.70;90.20;;;;;;4921327;29;20087;-77
2023/05/07 05:18:29;;;;;;;4.15;1.98;;;9.80;90.10;;;;;;4918874;29;20471;-78
2023/05/07 05:20:58;;;;;;;4.68;2.08;;;10.00;90.20;;;;;;4918810;29;20047;-79
2023/05/07 05:23:25;;;;;;;6.72;1.40;;;10.10;87.90;;;;;;4902738;29;20055;-77
2023/05/07 05:25:57;;;;;;;3.55;1.77;;;10.20;85.90;;;;;;4903526;29;20568;-77
2023/05/07 05:28:27;;;;;;;4.53;1.70;;;10.30;84.60;;;;;;4919084;29;20063;-78
2023/05/07 05:30:54;;;;;;;6.65;2.00;;;10.50;83.70;;;;;;4936223;29;20063;-79
2023/05/07 05:33:24;;;;;;;4.90;2.38;;;10.60;83.90;;;;;;4933358;29;20079;-78
2023/05/07 05:35:51;;;;;;;3.78;2.50;;;10.60;80.50;;;;;;4919301;29;20060;-79
2023/05/07 05:38:20;;;;;;;4.38;2.35;;;10.40;79.50;;;;;;4931455;29;20526;-79
2023/05/07 05:40:48;;;;;;;5.53;2.85;;;10.40;79.60;;;;;;4917894;29;20079;-78
2023/05/07 05:43:16;;;;;;;4.43;2.20;;;10.20;79.90;;;;;;4909739;29;20146;-79
2023/05/07 05:45:44;;;;;;;5.35;2.10;;;10.10;80.30;;;;;;4884624;29;20044;-79
2023/05/07 05:48:11;;;;;;;2.40;2.20;;;10.20;80.50;;;;;;4915847;29;20058;-73
2023/05/07 05:50:39;;;;;;;3.00;2.70;;;10.40;78.90;;;;;;4924882;29;20098;-73
2023/05/07 05:53:07;;;;;;;2.95;2.42;;;10.60;78.30;;;;;;4918239;29;20058;-73
2023/05/07 05:55:37;;;;;;;6.07;2.45;;;10.70;76.90;;;;;;4912938;29;20047;-73
2023/05/07 05:58:05;;;;;;;3.50;2.60;;;10.90;76.50;;;;;;4900279;29;20048;-73
2023/05/07 06:00:38;;;;;;;4.13;2.03;;;11.20;76.60;;;;;;4919688;29;20054;-73
2023/05/07 06:03:07;;;;;;;5.00;2.00;;;11.30;75.40;;;;;;4934064;29;20067;-73
2023/05/07 06:05:35;;;;;;;6.57;2.22;;;11.50;74.30;;;;;;4901892;29;20048;-72
2023/05/07 06:08:04;;;;;;;4.50;2.28;;;11.70;73.40;;;;;;4918842;29;20044;-74
2023/05/07 06:10:34;;;;;;;8.15;2.05;;;11.90;73.60;;;;;;4916097;29;20421;-73
2023/05/07 06:13:03;;;;;;;1.92;1.38;;;12.00;71.00;;;;;;4917991;29;20128;-74
2023/05/07 06:15:42;;;;;;;3.20;1.67;;;12.00;69.10;;;;;;4914445;29;20048;-74
2023/05/07 06:18:13;;;;;;;3.08;1.67;;;11.90;69.30;;;;;;4925603;29;20052;-78
2023/05/07 06:20:42;;;;;;;7.57;2.28;;;12.00;69.30;;;;;;4916037;29;20080;-79
2023/05/07 06:23:15;;;;;;;7.03;1.80;;;12.20;68.60;;;;;;4915421;29;20146;-78
2023/05/07 06:25:43;;;;;;;2.67;1.60;;;12.20;66.70;;;;;;4925217;29;20445;-76
2023/05/07 06:28:12;;;;;;;6.63;2.25;;;12.10;66.90;;;;;;4910517;29;20078;-78
2023/05/07 06:30:41;;;;;;;2.38;1.60;;;12.20;67.00;;;;;;4917562;29;20052;-79
2023/05/07 06:33:09;;;;;;;4.82;1.77;;;12.40;66.30;;;;;;4917759;29;20576;-80
2023/05/07 06:35:37;;;;;;;5.70;1.77;;;12.50;65.80;;;;;;4932623;29;20051;-79
2023/05/07 06:38:04;;;;;;;2.70;1.55;;;12.50;64.80;;;;;;4917832;29;20134;-78
2023/05/07 06:40:32;;;;;;;3.58;2.90;;;12.90;64.60;;;;;;4900661;29;20048;-78
2023/05/07 06:43:01;;;;;;;7.28;1.98;;;13.70;62.00;;;;;;4929075;29;20382;-79
2023/05/07 06:45:44;;;;;;;2.03;1.50;;;14.60;60.20;;;;;;4928249;29;20052;-76
2023/05/07 06:48:11;;;;;;;3.85;1.40;;;15.70;57.50;;;;;;4901400;29;20505;-78
2023/05/07 06:50:49;;;;;;;3.20;1.40;;;16.00;55.20;;;;;;4898283;29;20066;-73
2023/05/07 06:53:18;;;;;;;2.70;1.83;;;16.70;54.60;;;;;;4898522;29;20059;-78
2023/05/07 06:55:49;;;;;;;4.38;1.67;;;17.30;52.70;;;;;;4899477;29;20056;-77
2023/05/07 06:58:20;;;;;;;3.25;1.70;;;17.90;51.10;;;;;;4916259;29;20063;-77
2023/05/07 07:00:50;;;;;;;7.88;2.45;;;18.30;50.40;;;;;;4901186;29;20078;-76
2023/05/07 07:03:17;;;;;;;2.08;1.77;;;18.80;50.30;;;;;;4933682;29;20079;-77
2023/05/07 07:05:46;;;;;;;3.63;1.15;;;19.20;49.50;;;;;;4901164;29;20048;-79
2023/05/07 07:08:14;;;;;;;9.73;1.92;;;19.50;48.00;;;;;;4891282;29;20513;-78
2023/05/07 07:10:42;;;;;;;1.40;1.30;;;19.70;47.10;;;;;;4905242;29;20062;-79
2023/05/07 07:13:09;;;;;;;3.92;1.77;;;19.90;45.40;;;;;;4909595;29;20051;-79
2023/05/07 07:15:37;;;;;;;4.22;2.15;;;20.30;44.50;;;;;;4926007;29;20087;-77
2023/05/07 07:18:06;;;;;;;2.30;2.10;;;20.40;44.20;;;;;;4906425;29;20063;-79
2023/05/07 07:20:33;;;;;;;6.70;2.20;;;20.50;43.80;;;;;;4899331;29;20048;-77
2023/05/07 07:23:01;;;;;;;5.63;1.98;;;20.40;43.90;;;;;;4912801;29;20094;-76
2023/05/07 07:25:29;;;;;;;15.45;2.40;;;20.30;44.00;;;;;;4927419;29;20059;-75
2023/05/07 07:28:22;;;;;;;4.43;1.50;;;20.60;43.60;;;;;;4925832;29;20136;-73
2023/05/07 07:31:32;;;;;;;2.65;1.60;;;21.00;42.60;;;;;;4913542;29;20053;-76
2023/05/07 07:34:01;;;;;;;3.88;1.25;;;21.50;42.30;;;;;;4916629;29;20355;-76
2023/05/07 07:36:29;;;;;;;1.80;1.10;;;21.60;41.00;;;;;;4916902;29;20052;-73
2023/05/07 07:38:58;;;;;;;4.45;1.60;;;21.60;41.00;;;;;;4932697;29;20493;-72
2023/05/07 07:41:25;;;;;;;3.67;1.20;;;21.70;41.90;;;;;;4915934;29;20551;-74
2023/05/07 07:43:53;;;;;;;1.50;1.40;;;21.30;40.70;;;;;;4914361;29;20058;-73
2023/05/07 07:46:22;;;;;;;2.58;1.60;;;20.70;41.90;;;;;;4922631;29;20532;-73
2023/05/07 07:48:50;;;;;;;5.50;1.60;;;19.60;42.90;;;;;;4911291;29;20051;-72
2023/05/07 07:51:19;;;;;;;2.13;1.10;;;19.90;43.40;;;;;;4914911;29;20051;-76
2023/05/07 07:53:46;;;;;;;3.17;1.30;;;19.70;42.20;;;;;;4952918;29;20047;-75
2023/05/07 07:56:15;;;;;;;2.88;1.00;;;18.60;43.20;;;;;;4914398;29;20147;-76
2023/05/07 07:58:43;;;;;;;1.90;1.80;;;17.60;44.40;;;;;;4912584;29;20054;-73
2023/05/07 08:01:12;;;;;;;2.58;1.45;;;16.80;45.50;;;;;;4921352;29;20045;-73
2023/05/07 08:03:40;;;;;;;1.02;0.80;;;16.10;46.50;;;;;;4930397;29;20055;-74
2023/05/07 08:06:07;;;;;;;1.27;1.10;;;15.40;47.50;;;;;;4928857;29;20044;-74
2023/05/07 08:08:38;;;;;;;1.77;1.10;;;14.70;48.80;;;;;;4924835;29;20481;-74
2023/05/07 08:11:06;;;;;;;4.55;0.85;;;14.20;49.50;;;;;;4905626;29;20099;-73
2023/05/07 08:13:36;;;;;;;3.38;1.20;;;13.60;49.70;;;;;;4904984;29;20055;-73
2023/05/07 08:16:06;;;;;;;4.63;1.08;;;13.00;50.80;;;;;;4912136;29;20056;-74
2023/05/07 08:18:35;;;;;;;1.75;1.15;;;12.60;51.70;;;;;;4907950;29;20044;-74
2023/05/07 08:21:04;;;;;;;1.25;0.90;;;12.20;52.50;;;;;;4912738;29;20052;-74
2023/05/07 08:23:34;;;;;;;1.25;1.08;;;12.00;52.40;;;;;;4920486;29;20048;-74
2023/05/07 08:26:03;;;;;;;1.98;1.20;;;11.80;53.00;;;;;;4926696;29;20052;-74
2023/05/07 08:28:31;;;;;;;1.65;1.55;;;11.70;53.90;;;;;;4888284;29;20040;-75
2023/05/07 08:31:00;;;;;;;2.85;1.90;;;11.80;54.60;;;;;;4926113;29;20052;-74
2023/05/07 08:33:29;;;;;;;3.13;1.63;;;11.90;55.60;;;;;;4901871;29;20054;-75
2023/05/07 08:35:57;;;;;;;2.13;1.90;;;12.10;55.40;;;;;;4890782;29;20539;-74
2023/05/07 08:38:24;;;;;;;6.68;2.40;;;13.80;55.80;;;;;;4921657;29;20461;-72
2023/05/07 08:40:52;;;;;;;3.85;1.77;;;15.00;53.90;;;;;;4913134;29;20106;-73
2023/05/07 08:43:28;;;;;;;2.78;1.42;;;15.50;51.90;;;;;;4907922;29;20413;-75
2023/05/07 08:45:58;;;;;;;1.65;1.35;;;15.70;50.70;;;;;;4913581;29;20111;-77
2023/05/07 08:48:31;;;;;;;7.80;3.30;;;15.50;50.30;;;;;;4913893;29;20086;-77
2023/05/07 08:51:07;;;;;;;2.30;1.50;;;15.30;50.40;;;;;;4929573;29;20055;-79
2023/05/07 08:53:37;;;;;;;8.38;1.38;;;15.00;50.10;;;;;;4896573;29;20107;-78
2023/05/07 08:56:06;;;;;;;3.50;1.27;;;14.70;50.30;;;;;;4891169;29;20054;-77
2023/05/07 08:58:35;;;;;;;8.30;2.15;;;14.30;50.10;;;;;;4900087;29;20048;-76
2023/05/07 09:01:08;;;;;;;2.65;1.20;;;14.10;50.90;;;;;;4910351;29;20056;-77
2023/05/07 09:03:35;;;;;;;4.43;1.50;;;13.90;50.90;;;;;;4922693;29;20648;-78
2023/05/07 09:06:03;;;;;;;3.03;1.58;;;14.20;51.00;;;;;;4913535;29;20505;-74
2023/05/07 09:08:31;;;;;;;4.97;1.25;;;14.30;50.60;;;;;;4898394;29;20603;-74
2023/05/07 09:11:02;;;;;;;3.08;1.73;;;14.20;50.60;;;;;;4928967;29;20421;-74
2023/05/07 09:13:32;;;;;;;1.90;1.30;;;14.00;50.70;;;;;;4915395;29;20115;-72
2023/05/07 09:16:13;;;;;;;2.17;1.03;;;13.70;51.20;;;;;;4918767;29;20060;-73
2023/05/07 09:18:43;;;;;;;2.30;0.90;;;13.60;51.30;;;;;;4907072;29;20110;-74
2023/05/07 09:21:12;;;;;;;3.00;1.42;;;13.60;51.90;;;;;;4916846;29;20130;-76
2023/05/07 09:23:40;;;;;;;1.52;1.10;;;13.50;50.60;;;;;;4925852;29;20056;-74
2023/05/07 09:26:11;;;;;;;7.68;1.10;;;13.50;51.10;;;;;;4908666;29;20457;-74
2023/05/07 09:28:41;;;;;;;3.57;1.03;;;13.60;52.00;;;;;;4912322;29;20557;-75
2023/05/07 09:31:12;;;;;;;1.83;1.10;;;13.80;50.60;;;;;;4910374;29;20500;-75
2023/05/07 09:33:41;;;;;;;1.50;0.90;;;14.10;49.00;;;;;;4914419;29;20107;-76
2023/05/07 09:36:20;;;;;;;4.43;0.68;;;14.50;48.30;;;;;;4936110;29;20146;-75
2023/05/07 09:38:57;;;;;;;;;;;;;;;;;;;;;
2023/05/07 09:41:26;;;;;;;1.30;1.20;;;14.70;47.70;;;;;;4926982;29;20130;-75
2023/05/07 09:44:04;;;;;;;4.38;1.17;;;14.70;47.10;;;;;;4918879;29;20047;-75
2023/05/07 09:46:42;;;;;;;2.05;0.95;;;14.70;46.20;;;;;;4933983;29;20051;-76
2023/05/07 09:49:22;;;;;;;6.35;1.67;;;14.80;45.50;;;;;;4901454;29;20055;-75
2023/05/07 09:52:00;;;;;;;6.88;0.80;;;14.60;44.80;;;;;;4928024;29;20331;-75
2023/05/07 09:54:29;;;;;;;3.35;0.90;;;14.50;43.60;;;;;;4917065;29;20571;-76
2023/05/07 09:56:59;;;;;;;4.95;0.77;;;14.40;43.80;;;;;;4913243;29;20048;-74
2023/05/07 09:59:28;;;;;;;2.85;0.70;;;14.50;43.10;;;;;;4899137;29;20043;-75
2023/05/07 10:01:58;;;;;;;1.02;0.50;;;15.10;43.40;;;;;;4933700;29;20413;-76
2023/05/07 10:04:27;;;;;;;8.10;1.13;;;16.20;42.30;;;;;;4915805;29;20054;-78
2023/05/07 10:06:55;;;;;;;1.80;0.70;;;17.50;39.80;;;;;;4899845;29;20541;-79
2023/05/07 10:09:25;;;;;;;3.45;1.27;;;18.90;39.80;;;;;;4915580;29;20470;-79
2023/05/07 10:11:53;;;;;;;2.63;0.88;;;20.40;37.60;;;;;;4908759;29;20051;-78
2023/05/07 10:14:23;;;;;;;2.50;1.00;;;20.40;36.20;;;;;;4892422;29;20052;-80
2023/05/07 10:16:51;;;;;;;2.08;0.75;;;20.10;37.00;;;;;;4931553;29;20075;-79
2023/05/07 10:19:21;;;;;;;6.05;0.70;;;19.70;37.10;;;;;;4909978;29;20055;-82
2023/05/07 10:21:57;;;;;;;1.63;0.50;;;19.70;37.80;;;;;;4926626;29;20095;-79
2023/05/07 10:24:30;;;;;;;5.28;0.95;;;20.50;36.80;;;;;;4893689;29;20044;-80
2023/05/07 10:27:01;;;;;;;4.63;1.20;;;21.00;35.00;;;;;;4913206;29;20075;-76
2023/05/07 10:29:37;;;;;;;1.15;0.70;;;22.40;35.20;;;;;;4901280;29;20091;-76
2023/05/07 10:32:30;;;;;;;1.40;0.85;;;22.60;33.30;;;;;;4928364;29;20054;-77
2023/05/07 10:35:04;;;;;;;3.17;0.73;;;22.00;33.20;;;;;;4909451;29;20063;-78
2023/05/07 10:37:32;;;;;;;2.25;0.98;;;21.00;33.50;;;;;;4913262;29;20047;-77
2023/05/07 10:40:00;;;;;;;1.27;0.80;;;19.70;33.70;;;;;;4927159;29;20040;-77
2023/05/07 10:42:35;;;;;;;3.28;1.10;;;19.30;36.10;;;;;;4925233;29;20059;-74
2023/05/07 10:45:16;;;;;;;2.75;0.85;;;19.50;36.00;;;;;;4897653;29;20470;-74
2023/05/07 10:48:09;;;;;;;2.33;1.52;;;20.60;35.20;;;;;;4912040;29;20048;-74
2023/05/07 10:50:47;;;;;;;2.17;1.02;;;22.30;34.70;;;;;;4910464;29;20063;-75
2023/05/07 10:53:32;;;;;;;1.13;0.70;;;23.90;33.30;;;;;;4913452;29;20431;-77
2023/05/07 10:56:37;;;;;;;0.70;0.70;;;24.80;32.20;;;;;;4924601;29;20047;-78
2023/05/07 10:59:33;;;;;;;1.60;0.70;;;25.70;29.90;;;;;;4900382;29;20044;-77
2023/05/07 11:02:11;;;;;;;5.38;1.50;;;26.40;29.40;;;;;;4910744;29;20143;-74
2023/05/07 11:05:20;;;;;;;1.25;0.70;;;26.30;29.40;;;;;;4930536;29;20136;-72
2023/05/07 11:07:57;;;;;;;4.45;4.03;;;26.20;28.90;;;;;;4915249;29;20062;-73
2023/05/07 11:10:51;;;;;;;4.70;2.45;;;25.10;28.90;;;;;;4933297;29;20154;-74
2023/05/07 11:13:44;;;;;;;4.97;0.95;;;23.10;29.90;;;;;;4923955;29;20056;-74
2023/05/07 11:16:20;;;;;;;3.38;1.10;;;21.40;31.50;;;;;;4908036;29;20063;-77
2023/05/07 11:18:52;;;;;;;2.15;0.73;;;20.10;33.40;;;;;;4911563;29;20469;-77
2023/05/07 11:21:36;;;;;;;3.40;1.30;;;19.30;35.40;;;;;;4925079;29;20599;-77
2023/05/07 11:24:13;;;;;;;1.65;1.10;;;20.30;35.50;;;;;;4932729;29;20044;-77
2023/05/07 11:27:00;;;;;;;3.53;2.60;;;22.10;33.60;;;;;;4932842;29;20063;-78
2023/05/07 11:29:28;;;;;;;1.25;0.93;;;23.80;32.60;;;;;;4931871;29;20052;-77
2023/05/07 11:32:03;;;;;;;1.65;1.15;;;24.70;30.70;;;;;;4923459;29;20427;-78
2023/05/07 11:34:36;;;;;;;1.77;1.40;;;25.70;30.20;;;;;;4893344;29;20426;-77
2023/05/07 11:37:04;;;;;;;4.68;1.15;;;25.40;29.60;;;;;;4923464;29;20044;-79
2023/05/07 11:39:54;;;;;;;1.55;0.85;;;23.90;30.30;;;;;;4905105;29;20421;-77
2023/05/07 11:42:29;;;;;;;1.15;0.93;;;22.20;32.00;;;;;;4932337;29;20549;-76
2023/05/07 11:44:56;;;;;;;3.42;0.73;;;22.80;32.40;;;;;;4931601;29;20873;-75
2023/05/07 11:47:23;;;;;;;1.17;1.00;;;24.20;33.10;;;;;;4907953;29;20518;-72
2023/05/07 11:49:52;;;;;;;1.77;0.60;;;25.50;30.80;;;;;;4921334;29;20508;-73
2023/05/07 11:52:21;;;;;;;2.95;1.20;;;26.50;30.50;;;;;;4908342;29;20521;-74
2023/05/07 11:54:54;;;;;;;5.32;3.70;;;27.00;29.70;;;;;;4926391;29;20044;-74
2023/05/07 11:57:22;;;;;;;1.90;1.00;;;27.20;29.40;;;;;;4904690;29;20131;-74
2023/05/07 11:59:54;;;;;;;4.55;0.80;;;27.70;30.00;;;;;;4928337;29;20051;-75
2023/05/07 12:02:21;;;;;;;2.50;1.40;;;27.90;29.10;;;;;;4924756;29;20067;-75
2023/05/07 12:04:48;;;;;;;1.88;1.45;;;28.10;29.50;;;;;;4921747;29;20039;-75
2023/05/07 12:07:17;;;;;;;0.85;0.82;;;28.00;28.90;;;;;;4913219;29;20051;-73
2023/05/07 12:09:47;;;;;;;13.23;2.05;;;27.90;28.70;;;;;;4930234;29;20051;-75
2023/05/07 12:12:17;;;;;;;1.30;1.10;;;28.20;29.10;;;;;;4909895;29;20400;-74
2023/05/07 12:14:46;;;;;;;2.83;0.73;;;28.30;29.30;;;;;;4908255;29;20138;-77
2023/05/07 12:17:15;;;;;;;2.17;1.25;;;28.70;29.30;;;;;;4923910;29;20052;-79
2023/05/07 12:19:44;;;;;;;7.35;3.63;;;29.10;29.10;;;;;;4907805;29;20077;-77
2023/05/07 12:22:12;;;;;;;1.70;1.27;;;29.70;28.50;;;;;;4908504;29;20055;-73
2023/05/07 12:24:50;;;;;;;1.20;1.10;;;29.80;28.10;;;;;;4891462;29;20082;-74
2023/05/07 12:27:19;;;;;;;6.78;4.60;;;27.80;28.10;;;;;;4934982;29;20108;-75
2023/05/07 12:29:48;;;;;;;1.60;1.38;;;25.70;29.60;;;;;;4917186;29;20477;-74
2023/05/07 12:32:16;;;;;;;0.93;0.80;;;24.30;30.30;;;;;;4909794;29;20059;-73
2023/05/07 12:34:43;;;;;;;2.25;1.00;;;22.80;31.20;;;;;;4917655;29;20432;-73
2023/05/07 12:37:12;;;;;;;2.47;0.95;;;21.40;33.70;;;;;;4921359;29;20525;-73
2023/05/07 12:39:44;;;;;;;4.35;0.82;;;20.50;33.60;;;;;;4939124;29;20078;-74
2023/05/07 12:42:23;;;;;;;2.05;1.20;;;19.80;35.00;;;;;;4933791;29;20056;-72
2023/05/07 12:44:51;;;;;;;4.78;2.13;;;19.40;36.00;;;;;;4933757;29;20184;-71
2023/05/07 12:47:18;;;;;;;2.95;1.58;;;19.60;36.10;;;;;;4935558;29;20539;-73
2023/05/07 12:49:46;;;;;;;1.15;1.00;;;21.40;34.70;;;;;;4935701;29;20114;-74
2023/05/07 12:52:14;;;;;;;5.45;1.08;;;23.60;32.40;;;;;;4936299;29;20047;-74
2023/05/07 12:54:42;;;;;;;1.05;0.82;;;25.10;30.40;;;;;;4932749;29;20424;-73
2023/05/07 12:57:11;;;;;;;1.48;0.88;;;26.20;29.70;;;;;;4895718;29;20039;-74
2023/05/07 12:59:40;;;;;;;2.83;0.70;;;27.10;29.10;;;;;;4913991;29;20048;-72
2023/05/07 13:02:08;;;;;;;1.85;0.90;;;27.50;28.90;;;;;;4921311;29;20087;-73
2023/05/07 13:04:40;;;;;;;6.55;0.80;;;27.80;29.00;;;;;;4902523;29;20739;-77
2023/05/07 13:07:07;;;;;;;3.10;0.75;;;28.30;28.40;;;;;;4917253;29;20075;-76
2023/05/07 13:09:38;;;;;;;2.05;0.85;;;28.40;28.40;;;;;;4918705;29;20106;-77